createdAt,value
2022-11-10T00:00:35.470Z,3.92
2022-11-10T00:03:22.061Z,2.95
2022-11-10T00:06:09.570Z,2.80
2022-11-10T00:08:55.313Z,3.85
2022-11-10T00:11:41.911Z,2.70
2022-11-10T00:14:46.208Z,3.20
2022-11-10T00:17:32.427Z,3.70
2022-11-10T00:20:18.298Z,3.25
2022-11-10T00:23:04.301Z,3.40
2022-11-10T00:25:50.224Z,2.75
2022-11-10T00:28:36.231Z,2.65
2022-11-10T00:31:22.310Z,2.50
2022-11-10T00:34:12.452Z,2.83
2022-11-10T00:36:58.380Z,3.00
2022-11-10T00:39:44.391Z,2.70
2022-11-10T00:42:30.313Z,3.53
2022-11-10T00:45:16.195Z,3.22
2022-11-10T00:48:02.194Z,3.65
2022-11-10T00:50:48.552Z,3.33
2022-11-10T00:53:34.451Z,2.75
2022-11-10T00:56:21.509Z,3.03
2022-11-10T00:59:07.684Z,3.40
2022-11-10T01:01:53.844Z,3.00
2022-11-10T01:04:39.893Z,2.90
2022-11-10T01:07:26.025Z,2.72
2022-11-10T01:10:12.076Z,3.03
2022-11-10T01:12:58.129Z,3.22
2022-11-10T01:15:43.955Z,2.70
2022-11-10T01:18:29.878Z,3.42
2022-11-10T01:21:15.981Z,2.42
2022-11-10T01:24:02.224Z,2.67
2022-11-10T01:26:48.779Z,3.15
2022-11-10T01:29:34.782Z,3.00
2022-11-10T01:32:21.020Z,3.33
2022-11-10T01:35:07.203Z,2.42
2022-11-10T01:37:53.493Z,2.95
2022-11-10T01:40:40.495Z,3.65
2022-11-10T01:43:27.530Z,2.92
2022-11-10T01:46:14.291Z,2.53
2022-11-10T01:49:03.602Z,3.03
2022-11-10T01:51:57.849Z,2.50
2022-11-10T01:54:47.221Z,3.13
2022-11-10T01:57:34.823Z,3.13
2022-11-10T02:00:21.089Z,2.95
2022-11-10T02:03:13.670Z,3.78
2022-11-10T02:06:00.531Z,3.35
2022-11-10T02:08:47.777Z,3.97
2022-11-10T02:11:34.913Z,3.60
2022-11-10T02:14:21.184Z,2.95
2022-11-10T02:17:07.042Z,3.58
2022-11-10T02:19:53.024Z,3.08
2022-11-10T02:22:39.725Z,3.45
2022-11-10T02:25:32.457Z,3.25
2022-11-10T02:28:18.349Z,3.97
2022-11-10T02:31:05.783Z,3.22
2022-11-10T02:33:51.852Z,3.40
2022-11-10T02:36:37.831Z,3.00
2022-11-10T02:39:24.288Z,3.70
2022-11-10T02:42:11.409Z,3.65
2022-11-10T02:44:58.226Z,3.45
2022-11-10T02:47:44.212Z,3.33
2022-11-10T02:50:30.295Z,3.38
2022-11-10T02:53:16.399Z,2.97
2022-11-10T02:56:01.972Z,3.00
2022-11-10T02:58:48.158Z,3.47
2022-11-10T03:01:34.284Z,3.17
2022-11-10T03:04:20.488Z,3.58
2022-11-10T03:07:06.438Z,3.40
2022-11-10T03:09:52.408Z,3.17
2022-11-10T03:12:38.049Z,3.58
2022-11-10T03:15:24.858Z,3.60
2022-11-10T03:18:11.068Z,3.17
2022-11-10T03:20:57.342Z,3.10
2022-11-10T03:23:43.218Z,2.53
2022-11-10T03:26:29.571Z,3.83
2022-11-10T03:29:15.724Z,3.33
2022-11-10T03:32:01.653Z,3.10
2022-11-10T03:34:47.686Z,3.05
2022-11-10T03:37:33.772Z,4.07
2022-11-10T03:40:20.303Z,3.42
2022-11-10T03:43:06.351Z,3.70
2022-11-10T03:45:52.350Z,2.92
2022-11-10T03:48:38.502Z,2.95
2022-11-10T03:51:24.434Z,3.13
2022-11-10T03:54:10.297Z,3.28
2022-11-10T03:56:56.397Z,2.95
2022-11-10T03:59:42.478Z,3.70
2022-11-10T04:02:28.401Z,3.15
2022-11-10T04:05:32.932Z,2.60
2022-11-10T04:08:37.387Z,3.88
2022-11-10T04:11:42.318Z,3.60
2022-11-10T04:14:47.078Z,3.93
2022-11-10T04:17:33.070Z,3.08
2022-11-10T04:20:19.057Z,3.33
2022-11-10T04:23:23.861Z,3.63
2022-11-10T04:26:30.880Z,2.80
2022-11-10T04:29:18.759Z,4.63
2022-11-10T04:32:04.857Z,3.30
2022-11-10T04:34:51.109Z,3.20
2022-11-10T04:37:37.041Z,3.33
2022-11-10T04:40:22.891Z,3.28
2022-11-10T04:43:08.738Z,3.33
2022-11-10T04:45:55.571Z,3.30
2022-11-10T04:48:41.467Z,3.25
2022-11-10T04:51:38.470Z,2.58
2022-11-10T04:54:24.407Z,3.17
2022-11-10T04:57:10.437Z,3.38
2022-11-10T04:59:56.628Z,2.85
2022-11-10T05:02:42.604Z,3.25
2022-11-10T05:05:29.033Z,3.08
2022-11-10T05:08:15.825Z,3.75
2022-11-10T05:11:01.754Z,2.83
2022-11-10T05:13:47.330Z,3.20
2022-11-10T05:16:33.682Z,3.15
2022-11-10T05:19:19.359Z,3.13
2022-11-10T05:22:06.972Z,3.08
2022-11-10T05:24:53.114Z,4.80
2022-11-10T05:27:39.243Z,3.72
2022-11-10T05:30:25.304Z,2.90
2022-11-10T05:33:14.746Z,3.10
2022-11-10T05:36:00.659Z,3.85
2022-11-10T05:38:46.447Z,3.47
2022-11-10T05:41:32.319Z,3.08
2022-11-10T05:44:18.252Z,3.63
2022-11-10T05:47:04.511Z,3.25
2022-11-10T05:49:50.454Z,3.58
2022-11-10T05:52:39.729Z,3.30
2022-11-10T05:55:27.772Z,4.55
2022-11-10T05:58:13.637Z,3.78
2022-11-10T06:00:59.871Z,2.92
2022-11-10T06:03:45.675Z,4.13
2022-11-10T06:06:31.593Z,3.40
2022-11-10T06:09:17.485Z,3.60
2022-11-10T06:12:04.186Z,3.78
2022-11-10T06:14:50.062Z,3.58
2022-11-10T06:17:38.101Z,3.67
2022-11-10T06:20:24.837Z,4.25
2022-11-10T06:23:12.288Z,3.90
2022-11-10T06:25:58.146Z,3.47
2022-11-10T06:28:44.087Z,3.58
2022-11-10T06:31:30.052Z,3.20
2022-11-10T06:34:16.083Z,3.38
2022-11-10T06:37:02.091Z,3.35
2022-11-10T06:39:47.929Z,3.88
2022-11-10T06:42:34.603Z,3.30
2022-11-10T06:45:21.697Z,3.65
2022-11-10T06:48:11.931Z,3.15
2022-11-10T06:51:01.329Z,3.05
2022-11-10T06:53:47.587Z,3.30
2022-11-10T06:56:34.800Z,3.10
2022-11-10T06:59:20.485Z,2.95
2022-11-10T07:02:08.801Z,2.85
2022-11-10T07:04:54.874Z,3.65
2022-11-10T07:07:41.155Z,3.10
2022-11-10T07:10:27.240Z,3.72
2022-11-10T07:13:13.237Z,2.55
2022-11-10T07:15:58.998Z,3.30
2022-11-10T07:18:47.770Z,3.70
2022-11-10T07:21:33.791Z,3.42
2022-11-10T07:24:19.404Z,3.70
2022-11-10T07:27:05.426Z,3.08
2022-11-10T07:29:51.650Z,3.70
2022-11-10T07:32:37.688Z,3.00
2022-11-10T07:35:23.817Z,2.90
2022-11-10T07:38:12.009Z,2.80
2022-11-10T07:40:58.030Z,3.20
2022-11-10T07:43:44.005Z,3.03
2022-11-10T07:49:19.094Z,2.70
2022-11-10T07:52:04.649Z,3.10
2022-11-10T07:57:34.815Z,2.67
2022-11-10T08:03:17.754Z,4.70
2022-11-10T08:06:03.918Z,3.75
2022-11-10T08:08:49.515Z,2.47
2022-11-10T08:11:35.552Z,2.67
2022-11-10T08:14:22.400Z,3.40
2022-11-10T08:17:08.026Z,3.20
2022-11-10T08:19:54.037Z,3.85
2022-11-10T08:22:39.736Z,1.88
2022-11-10T08:25:30.342Z,2.90
2022-11-10T08:28:20.552Z,2.43
2022-11-10T08:31:06.647Z,2.90
2022-11-10T08:33:52.540Z,3.63
2022-11-10T08:36:38.590Z,2.92
2022-11-10T08:39:38.498Z,3.10
2022-11-10T08:42:25.233Z,2.95
2022-11-10T08:45:11.677Z,3.47
2022-11-10T08:48:05.402Z,3.33
2022-11-10T08:50:51.715Z,3.72
2022-11-10T08:53:38.643Z,2.97
2022-11-10T08:56:24.871Z,3.60
2022-11-10T08:59:10.923Z,4.88
2022-11-10T09:01:58.025Z,3.20
2022-11-10T09:04:43.845Z,3.80
2022-11-10T09:07:31.288Z,4.05
2022-11-10T09:10:17.410Z,2.90
2022-11-10T09:13:05.213Z,2.70
2022-11-10T09:15:50.993Z,3.10
2022-11-10T09:18:36.636Z,3.58
2022-11-10T09:21:22.573Z,3.88
2022-11-10T09:24:08.633Z,2.85
2022-11-10T09:26:54.517Z,2.97
2022-11-10T09:29:40.647Z,3.55
2022-11-10T09:32:26.587Z,2.78
2022-11-10T09:35:13.555Z,3.53
2022-11-10T09:37:59.468Z,3.22
2022-11-10T09:41:13.613Z,3.70
2022-11-10T09:44:42.909Z,3.40
2022-11-10T09:48:05.113Z,3.47
2022-11-10T09:51:16.759Z,3.78
2022-11-10T09:54:22.575Z,3.70
2022-11-10T09:57:13.590Z,3.63
2022-11-10T09:59:59.725Z,2.80
2022-11-10T10:03:01.029Z,3.35
2022-11-10T10:06:02.540Z,3.38
2022-11-10T10:09:14.185Z,3.22
2022-11-10T10:12:16.449Z,3.83
2022-11-10T10:15:25.533Z,3.55
2022-11-10T10:18:20.643Z,3.00
2022-11-10T10:21:25.540Z,3.28
2022-11-10T10:24:21.157Z,3.13
2022-11-10T10:27:12.319Z,3.15
2022-11-10T10:29:58.064Z,3.63
2022-11-10T10:32:44.327Z,3.42
2022-11-10T10:35:31.888Z,2.92
2022-11-10T10:38:43.648Z,2.90
2022-11-10T10:41:32.264Z,2.95
2022-11-10T10:44:19.588Z,2.78
2022-11-10T10:47:05.512Z,2.83
2022-11-10T10:49:51.524Z,3.08
2022-11-10T10:52:37.317Z,2.47
2022-11-10T10:55:29.076Z,3.15
2022-11-10T10:58:28.350Z,2.70
2022-11-10T11:01:17.071Z,3.15
2022-11-10T11:04:25.074Z,2.72
2022-11-10T11:07:24.959Z,2.50
2022-11-10T11:10:25.444Z,3.20
2022-11-10T11:13:23.236Z,2.92
2022-11-10T11:16:12.181Z,2.92
2022-11-10T11:18:58.596Z,3.83
2022-11-10T11:22:07.476Z,3.22
2022-11-10T11:24:56.278Z,3.72
2022-11-10T11:27:59.651Z,2.83
2022-11-10T11:31:08.624Z,3.03
2022-11-10T11:34:04.431Z,2.97
2022-11-10T11:37:19.852Z,2.95
2022-11-10T11:40:29.336Z,2.78
2022-11-10T11:43:39.743Z,2.47
2022-11-10T11:46:58.264Z,2.50
2022-11-10T11:50:19.738Z,1.75
2022-11-10T11:53:05.628Z,3.30
2022-11-10T11:55:57.738Z,2.38
2022-11-10T11:59:07.152Z,2.40
2022-11-10T12:01:58.813Z,2.05
2022-11-10T12:05:06.279Z,3.08
2022-11-10T12:08:14.794Z,2.63
2022-11-10T12:11:12.394Z,1.90
2022-11-10T12:14:00.752Z,2.30
2022-11-10T12:17:01.380Z,2.85
2022-11-10T12:20:18.338Z,2.45
2022-11-10T12:23:45.268Z,2.28
2022-11-10T12:26:55.063Z,2.17
2022-11-10T12:30:05.978Z,2.17
2022-11-10T12:33:35.316Z,2.22
2022-11-10T12:36:24.195Z,1.80
2022-11-10T12:39:21.890Z,1.88
2022-11-10T12:42:15.326Z,3.03
2022-11-10T12:45:07.112Z,3.10
2022-11-10T12:47:54.272Z,2.40
2022-11-10T12:50:51.398Z,2.33
2022-11-10T12:53:40.639Z,2.25
2022-11-10T12:56:37.264Z,2.30
2022-11-10T12:59:28.948Z,1.80
2022-11-10T13:02:26.913Z,1.70
2022-11-10T13:05:15.608Z,2.20
2022-11-10T13:08:27.742Z,2.15
2022-11-10T13:11:13.231Z,2.70
2022-11-10T13:14:01.371Z,2.05
2022-11-10T13:16:55.650Z,1.70
2022-11-10T13:19:41.546Z,1.95
2022-11-10T13:22:36.755Z,1.90
2022-11-10T13:25:42.382Z,2.33
2022-11-10T13:28:46.587Z,1.98
2022-11-10T13:31:32.528Z,2.42
2022-11-10T13:34:21.174Z,2.20
2022-11-10T13:37:34.964Z,2.13
2022-11-10T13:40:29.497Z,1.73
2022-11-10T13:43:18.388Z,2.23
2022-11-10T13:46:05.711Z,2.25
2022-11-10T13:49:21.153Z,1.70
2022-11-10T13:52:35.803Z,2.17
2022-11-10T13:55:56.654Z,1.80
2022-11-10T13:58:44.797Z,1.63
2022-11-10T14:01:34.230Z,1.33
2022-11-10T14:04:35.594Z,2.00
2022-11-10T14:07:21.878Z,1.83
2022-11-10T14:10:17.625Z,2.13
2022-11-10T14:13:39.082Z,1.48
2022-11-10T14:16:28.694Z,1.42
2022-11-10T14:19:24.022Z,1.52
2022-11-10T14:22:24.772Z,1.83
2022-11-10T14:25:36.154Z,1.75
2022-11-10T14:28:34.467Z,2.13
2022-11-10T14:31:23.173Z,1.95
2022-11-10T14:34:15.119Z,1.83
2022-11-10T14:37:03.587Z,2.40
2022-11-10T14:40:01.227Z,2.22
2022-11-10T14:42:47.703Z,1.98
2022-11-10T14:45:33.386Z,1.85
2022-11-10T14:48:22.151Z,1.30
2022-11-10T14:51:16.711Z,1.92
2022-11-10T14:54:02.826Z,1.83
2022-11-10T14:56:48.932Z,2.10
2022-11-10T14:59:37.412Z,1.88
2022-11-10T15:02:23.497Z,1.35
2022-11-10T15:05:14.694Z,1.60
2022-11-10T15:08:01.691Z,2.38
2022-11-10T15:10:50.595Z,1.77
2022-11-10T15:13:38.657Z,2.55
2022-11-10T15:16:25.869Z,2.28
2022-11-10T15:19:27.366Z,2.08
2022-11-10T15:22:21.923Z,2.00
2022-11-10T15:25:15.018Z,2.30
2022-11-10T15:28:12.276Z,1.50
2022-11-10T15:31:05.480Z,2.03
2022-11-10T15:33:56.813Z,2.75
2022-11-10T15:36:42.882Z,1.80
2022-11-10T15:39:30.094Z,1.45
2022-11-10T15:42:21.868Z,2.17
2022-11-10T15:45:08.119Z,1.90
2022-11-10T15:47:54.971Z,2.08
2022-11-10T15:50:47.703Z,1.65
2022-11-10T15:53:41.122Z,1.80
2022-11-10T15:56:26.998Z,2.00
2022-11-10T15:59:13.446Z,2.05
2022-11-10T16:01:59.406Z,1.80
2022-11-10T16:04:46.136Z,2.08
2022-11-10T16:07:32.102Z,2.22
2022-11-10T16:10:17.953Z,1.67
2022-11-10T16:13:04.021Z,2.30
2022-11-10T16:15:50.507Z,1.98
2022-11-10T16:18:39.958Z,1.80
2022-11-10T16:21:29.085Z,1.60
2022-11-10T16:24:15.094Z,2.38
2022-11-10T16:27:00.881Z,1.90
2022-11-10T16:29:46.587Z,1.67
2022-11-10T16:32:32.563Z,1.80
2022-11-10T16:35:18.093Z,1.70
2022-11-10T16:38:28.893Z,2.00
2022-11-10T16:41:14.881Z,2.72
2022-11-10T16:44:00.845Z,2.13
2022-11-10T16:46:52.090Z,2.53
2022-11-10T16:49:45.025Z,3.25
2022-11-10T16:52:30.877Z,2.40
2022-11-10T16:55:16.596Z,3.03
2022-11-10T16:58:02.639Z,2.25
2022-11-10T17:00:49.197Z,1.98
2022-11-10T17:03:42.940Z,2.38
2022-11-10T17:06:30.353Z,3.28
2022-11-10T17:09:23.230Z,2.08
2022-11-10T17:12:13.088Z,2.10
2022-11-10T17:14:59.027Z,2.53
2022-11-10T17:17:46.278Z,2.33
2022-11-10T17:20:40.724Z,2.95
2022-11-10T17:23:27.016Z,2.58
2022-11-10T17:26:15.705Z,2.58
2022-11-10T17:29:01.403Z,1.92
2022-11-10T17:31:50.149Z,2.63
2022-11-10T17:34:35.768Z,3.50
2022-11-10T17:37:21.759Z,3.00
2022-11-10T17:40:19.840Z,2.45
2022-11-10T17:43:05.583Z,2.00
2022-11-10T17:45:51.677Z,2.25
2022-11-10T17:48:37.476Z,2.40
2022-11-10T17:51:23.522Z,2.30
2022-11-10T17:54:15.771Z,2.10
2022-11-10T17:57:04.312Z,1.50
2022-11-10T17:59:50.266Z,2.63
2022-11-10T18:02:36.415Z,2.17
2022-11-10T18:05:22.353Z,1.92
2022-11-10T18:08:08.731Z,2.22
2022-11-10T18:10:54.232Z,2.10
2022-11-10T18:13:41.604Z,1.90
2022-11-10T18:16:27.581Z,2.67
2022-11-10T18:19:13.498Z,2.22
2022-11-10T18:21:59.451Z,2.55
2022-11-10T18:24:45.665Z,2.58
2022-11-10T18:27:31.539Z,3.08
2022-11-10T18:30:18.241Z,2.78
2022-11-10T18:33:05.001Z,4.05
2022-11-10T18:35:50.725Z,3.83
2022-11-10T18:38:36.699Z,3.47
2022-11-10T18:41:40.760Z,2.65
2022-11-10T18:44:26.890Z,3.08
2022-11-10T18:47:13.229Z,2.83
2022-11-10T18:49:59.052Z,2.75
2022-11-10T18:52:45.898Z,2.53
2022-11-10T18:55:31.965Z,3.45
2022-11-10T18:58:17.755Z,4.28
2022-11-10T19:01:05.825Z,3.47
2022-11-10T19:03:52.189Z,2.88
2022-11-10T19:06:37.869Z,2.92
2022-11-10T19:09:23.595Z,3.38
2022-11-10T19:12:09.638Z,2.78
2022-11-10T19:14:55.460Z,2.90
2022-11-10T19:17:41.354Z,3.17
2022-11-10T19:20:27.194Z,2.58
2022-11-10T19:23:12.951Z,2.92
2022-11-10T19:26:00.673Z,2.97
2022-11-10T19:28:49.049Z,3.03
2022-11-10T19:31:34.790Z,2.75
2022-11-10T19:34:21.239Z,2.70
2022-11-10T19:37:07.269Z,3.75
2022-11-10T19:39:52.946Z,2.45
2022-11-10T19:42:38.864Z,2.10
2022-11-10T19:45:24.828Z,2.58
2022-11-10T19:48:10.703Z,2.50
2022-11-10T19:50:57.581Z,3.28
2022-11-10T19:53:45.673Z,2.75
2022-11-10T19:56:34.106Z,2.53
2022-11-10T19:59:21.093Z,2.67
2022-11-10T20:02:07.864Z,2.42
2022-11-10T20:05:12.181Z,2.83
2022-11-10T20:08:13.072Z,2.40
2022-11-10T20:11:07.306Z,3.50
2022-11-10T20:13:55.602Z,2.50
2022-11-10T20:16:41.150Z,2.58
2022-11-10T20:19:26.983Z,2.83
2022-11-10T20:22:13.547Z,3.15
2022-11-10T20:24:59.261Z,3.15
2022-11-10T20:27:45.371Z,2.38
2022-11-10T20:30:32.421Z,2.83
2022-11-10T20:33:18.091Z,2.50
2022-11-10T20:36:17.384Z,2.78
2022-11-10T20:39:06.458Z,2.30
2022-11-10T20:41:52.587Z,2.40
2022-11-10T20:44:39.047Z,3.05
2022-11-10T20:47:27.351Z,2.63
2022-11-10T20:50:16.356Z,3.13
2022-11-10T20:53:05.675Z,2.97
2022-11-10T20:55:57.761Z,3.25
2022-11-10T20:58:45.026Z,3.30
2022-11-10T21:01:32.442Z,2.83
2022-11-10T21:04:18.517Z,3.60
2022-11-10T21:07:04.415Z,2.88
2022-11-10T21:09:50.295Z,3.00
2022-11-10T21:12:50.977Z,3.88
2022-11-10T21:15:40.391Z,3.50
2022-11-10T21:18:34.263Z,3.67
2022-11-10T21:21:34.459Z,2.65
2022-11-10T21:24:20.909Z,3.67
2022-11-10T21:27:06.711Z,2.50
2022-11-10T21:29:52.843Z,2.97
2022-11-10T21:32:38.390Z,3.22
2022-11-10T21:35:24.588Z,2.67
2022-11-10T21:38:11.829Z,2.70
2022-11-10T21:40:57.926Z,3.25
2022-11-10T21:43:43.974Z,3.08
2022-11-10T21:46:29.908Z,2.45
2022-11-10T21:49:15.878Z,2.80
2022-11-10T21:52:01.507Z,2.58
2022-11-10T21:54:47.373Z,3.67
2022-11-10T21:57:33.380Z,3.00
2022-11-10T22:00:19.567Z,3.13
2022-11-10T22:03:05.659Z,3.15
2022-11-10T22:05:51.644Z,3.83
2022-11-10T22:08:38.799Z,4.03
2022-11-10T22:11:42.591Z,4.07
2022-11-10T22:14:46.916Z,4.20
2022-11-10T22:17:51.311Z,5.00
2022-11-10T22:20:37.091Z,4.57
2022-11-10T22:23:43.227Z,4.07
2022-11-10T22:26:29.182Z,4.35
2022-11-10T22:29:15.083Z,5.63
2022-11-10T22:32:01.929Z,5.03
2022-11-10T22:34:48.157Z,4.63
2022-11-10T22:37:34.041Z,5.40
2022-11-10T22:40:38.461Z,4.07
2022-11-10T22:43:42.836Z,5.50
2022-11-10T22:46:29.021Z,5.63
2022-11-10T22:49:16.880Z,5.28
2022-11-10T22:52:02.502Z,6.15
2022-11-10T22:54:48.449Z,4.95
2022-11-10T22:57:34.370Z,5.03
2022-11-10T23:00:20.200Z,4.70
2022-11-10T23:03:05.992Z,4.63
2022-11-10T23:05:56.320Z,4.90
2022-11-10T23:08:42.995Z,4.15
2022-11-10T23:11:30.620Z,4.45
2022-11-10T23:14:16.184Z,5.35
2022-11-10T23:17:02.027Z,5.28
2022-11-10T23:19:47.930Z,5.03
2022-11-10T23:22:33.714Z,4.53
2022-11-10T23:25:19.488Z,5.95
2022-11-10T23:28:05.470Z,5.32
2022-11-10T23:30:51.305Z,5.07
2022-11-10T23:33:39.157Z,4.40
2022-11-10T23:36:26.568Z,5.10
2022-11-10T23:39:13.576Z,5.88
2022-11-10T23:41:59.365Z,4.82
2022-11-10T23:44:45.148Z,4.55
2022-11-10T23:47:31.137Z,4.55
2022-11-10T23:50:17.288Z,4.53
2022-11-10T23:53:03.109Z,4.78
2022-11-10T23:55:57.108Z,6.20
2022-11-10T23:58:42.788Z,5.20
